Time;durP1;ratioP1;P1;durP2;ratioP2;P2;SDS_P1;SDS_P2;PMS_P1;PMS_P2;Temp;Humidity;BMP_temperature;BMP_pressure;BME280_temperature;BME280_humidity;BME280_pressure;Samples;Min_cycle;Max_cycle;Signal;HPM_P1;HPM_P2
2021/01/11 00:00:24;;;;;;;68.57;35.88;;;4.20;96.20;;;;;;5028341;28;20041;-73
2021/01/11 00:02:51;;;;;;;58.65;34.38;;;4.20;96.20;;;;;;5022379;28;20130;-73
2021/01/11 00:05:17;;;;;;;67.55;36.70;;;4.20;96.10;;;;;;5025165;28;20040;-73
2021/01/11 00:07:43;;;;;;;68.57;35.40;;;4.20;96.10;;;;;;5020520;28;20408;-73
2021/01/11 00:10:10;;;;;;;59.08;34.50;;;4.20;96.10;;;;;;5019560;28;20045;-73
2021/01/11 00:12:37;;;;;;;64.03;33.10;;;4.20;96.10;;;;;;5020885;28;20362;-73
2021/01/11 00:15:05;;;;;;;57.75;32.38;;;4.20;96.10;;;;;;5019501;28;20487;-73
2021/01/11 00:17:31;;;;;;;66.93;34.65;;;4.20;96.10;;;;;;5020717;28;20085;-73
2021/01/11 00:19:56;;;;;;;57.20;33.33;;;4.20;96.10;;;;;;5024945;28;20128;-73
2021/01/11 00:22:22;;;;;;;55.42;32.20;;;4.20;96.10;;;;;;5022911;28;20045;-73
2021/01/11 00:24:48;;;;;;;53.78;33.17;;;4.20;96.10;;;;;;5021990;28;20045;-73
2021/01/11 00:27:13;;;;;;;58.67;33.22;;;4.20;96.10;;;;;;5029900;28;20116;-73
2021/01/11 00:29:39;;;;;;;52.88;31.40;;;4.20;96.10;;;;;;5021966;28;20171;-73
2021/01/11 00:32:05;;;;;;;56.55;29.95;;;4.20;96.10;;;;;;5020030;28;20515;-73
2021/01/11 00:34:30;;;;;;;54.85;31.13;;;4.20;96.30;;;;;;5018359;28;20499;-73
2021/01/11 00:36:59;;;;;;;57.80;32.63;;;4.20;96.00;;;;;;5022784;28;20048;-73
2021/01/11 00:39:26;;;;;;;56.08;31.58;;;4.20;96.00;;;;;;5019204;28;20061;-73
2021/01/11 00:41:59;;;;;;;54.22;30.98;;;4.20;96.00;;;;;;5022008;28;20065;-73
2021/01/11 00:44:28;;;;;;;50.63;30.05;;;4.20;96.00;;;;;;5020629;28;20037;-73
2021/01/11 00:47:04;;;;;;;46.28;29.23;;;4.20;96.00;;;;;;5020895;28;20525;-73
2021/01/11 00:49:30;;;;;;;50.60;29.45;;;4.20;95.90;;;;;;5022271;28;20052;-73
2021/01/11 00:51:55;;;;;;;52.60;30.00;;;4.20;96.00;;;;;;5020317;28;20438;-73
2021/01/11 00:54:22;;;;;;;54.35;29.67;;;4.20;96.00;;;;;;5023784;28;20056;-73
2021/01/11 00:56:48;;;;;;;53.88;30.38;;;4.20;96.00;;;;;;5023586;28;20236;-73
2021/01/11 00:59:14;;;;;;;57.42;30.48;;;4.20;96.00;;;;;;5025475;28;20040;-73
2021/01/11 01:01:56;;;;;;;52.58;30.90;;;4.20;96.00;;;;;;5021495;28;20116;-73
2021/01/11 01:04:23;;;;;;;54.28;29.35;;;4.20;96.00;;;;;;5019745;28;20064;-73
2021/01/11 01:06:48;;;;;;;46.15;28.38;;;4.30;96.00;;;;;;5021394;28;20033;-73
2021/01/11 01:09:14;;;;;;;48.25;27.92;;;4.10;96.00;;;;;;5025115;28;20037;-73
2021/01/11 01:11:41;;;;;;;54.28;29.48;;;4.10;96.00;;;;;;5021151;28;20046;-73
2021/01/11 01:14:08;;;;;;;48.72;29.33;;;4.10;96.00;;;;;;5021770;28;20058;-73
2021/01/11 01:16:34;;;;;;;55.00;29.15;;;4.10;96.00;;;;;;5026572;28;20075;-73
2021/01/11 01:19:00;;;;;;;53.60;28.60;;;4.10;96.00;;;;;;5024543;28;20455;-73
2021/01/11 01:21:26;;;;;;;56.47;28.70;;;4.10;96.00;;;;;;5022717;28;20421;-73
2021/01/11 01:23:52;;;;;;;47.72;28.42;;;4.10;96.00;;;;;;5022852;28;20037;-73
2021/01/11 01:26:18;;;;;;;54.13;28.48;;;4.10;96.00;;;;;;5022654;28;20167;-73
2021/01/11 01:28:44;;;;;;;47.75;28.15;;;4.10;96.00;;;;;;5023921;28;20046;-73
2021/01/11 01:31:10;;;;;;;49.92;27.38;;;4.20;96.10;;;;;;5018825;28;20485;-73
2021/01/11 01:33:36;;;;;;;49.20;28.13;;;4.10;96.10;;;;;;5019586;28;20515;-74
2021/01/11 01:36:02;;;;;;;44.08;27.10;;;4.10;96.00;;;;;;5022101;28;20041;-73
2021/01/11 01:38:28;;;;;;;47.10;27.30;;;4.10;96.00;;;;;;5020636;28;20045;-73
2021/01/11 01:40:55;;;;;;;53.47;27.10;;;4.10;96.00;;;;;;5017984;28;20500;-73
2021/01/11 01:43:21;;;;;;;53.92;28.50;;;4.00;96.00;;;;;;5023943;28;20060;-73
2021/01/11 01:45:46;;;;;;;47.00;26.75;;;4.10;96.00;;;;;;5022328;28;20029;-73
2021/01/11 01:48:12;;;;;;;46.90;27.13;;;4.10;96.00;;;;;;5021338;28;20073;-73
2021/01/11 01:50:40;;;;;;;55.58;28.83;;;4.10;95.90;;;;;;5020917;28;20495;-73
2021/01/11 01:53:05;;;;;;;48.75;28.13;;;4.10;95.90;;;;;;5019854;28;20041;-73
2021/01/11 01:55:32;;;;;;;50.10;27.30;;;4.10;96.00;;;;;;5022129;28;20045;-73
2021/01/11 01:58:02;;;;;;;52.85;29.38;;;4.10;95.90;;;;;;5017631;28;20063;-73
2021/01/11 02:00:28;;;;;;;57.75;31.30;;;4.10;95.90;;;;;;5017713;28;20494;-73
2021/01/11 02:02:54;;;;;;;60.25;30.40;;;4.10;95.90;;;;;;5019445;28;20132;-73
2021/01/11 02:05:20;;;;;;;55.75;29.20;;;4.10;95.90;;;;;;5024795;28;20475;-73
2021/01/11 02:08:02;;;;;;;60.83;31.83;;;4.10;95.90;;;;;;5019490;28;20041;-73
2021/01/11 02:10:52;;;;;;;52.75;29.15;;;4.10;95.90;;;;;;5029118;28;20064;-73
2021/01/11 02:13:31;;;;;;;57.58;30.35;;;4.10;95.90;;;;;;5020143;28;20046;-73
2021/01/11 02:16:25;;;;;;;55.00;30.45;;;4.10;95.90;;;;;;5019880;28;20124;-73
2021/01/11 02:19:15;;;;;;;54.78;29.52;;;4.10;95.90;;;;;;5021510;28;20033;-73
2021/01/11 02:22:05;;;;;;;56.30;30.63;;;4.10;95.90;;;;;;5019612;28;20682;-73
2021/01/11 02:24:57;;;;;;;53.80;29.27;;;4.10;95.90;;;;;;5022236;28;20122;-73
2021/01/11 02:27:49;;;;;;;52.00;29.35;;;4.10;95.90;;;;;;5025197;28;20171;-73
2021/01/11 02:30:29;;;;;;;55.83;30.15;;;4.10;95.90;;;;;;5018853;28;20049;-73
2021/01/11 02:33:06;;;;;;;49.95;29.17;;;4.10;95.90;;;;;;5020881;28;20045;-73
2021/01/11 02:35:47;;;;;;;55.08;30.02;;;4.10;95.90;;;;;;5018943;28;20045;-73
2021/01/11 02:38:15;;;;;;;53.85;29.25;;;4.10;95.90;;;;;;5026064;28;20459;-73
2021/01/11 02:40:41;;;;;;;50.72;29.73;;;4.10;95.90;;;;;;5017174;28;20548;-73
2021/01/11 02:43:07;;;;;;;52.38;29.42;;;4.10;95.90;;;;;;5018422;28;20495;-73
2021/01/11 02:45:33;;;;;;;54.65;29.52;;;4.10;95.90;;;;;;5018612;28;20041;-73
2021/01/11 02:48:34;;;;;;;46.38;29.55;;;4.10;95.90;;;;;;5020138;28;20124;-73
2021/01/11 02:51:21;;;;;;;50.10;30.48;;;4.10;95.90;;;;;;5016124;28;20050;-73
2021/01/11 02:54:09;;;;;;;45.67;28.33;;;4.10;95.90;;;;;;5023941;28;20075;-74
2021/01/11 02:57:07;;;;;;;49.72;28.90;;;4.10;95.90;;;;;;5030850;28;20037;-73
2021/01/11 03:00:06;;;;;;;54.30;30.27;;;4.10;95.90;;;;;;5018417;28;20073;-73
2021/01/11 03:02:35;;;;;;;45.03;28.77;;;4.10;95.90;;;;;;5024281;28;20034;-73
2021/01/11 03:05:01;;;;;;;46.67;28.45;;;4.10;96.30;;;;;;5025626;28;20383;-73
2021/01/11 03:07:27;;;;;;;48.50;28.30;;;4.10;96.00;;;;;;5022604;28;20495;-73
2021/01/11 03:09:53;;;;;;;42.42;28.63;;;4.10;96.00;;;;;;5021088;28;20124;-73
2021/01/11 03:12:18;;;;;;;42.03;28.15;;;4.10;96.00;;;;;;5023277;28;20081;-73
2021/01/11 03:14:44;;;;;;;50.97;29.00;;;4.10;96.00;;;;;;5021194;28;20118;-74
2021/01/11 03:17:09;;;;;;;44.20;28.48;;;4.10;96.00;;;;;;5020989;28;20136;-73
2021/01/11 03:19:35;;;;;;;42.10;27.65;;;4.10;95.90;;;;;;5023807;28;20498;-74
2021/01/11 03:22:01;;;;;;;41.97;27.02;;;4.10;96.00;;;;;;5021995;28;20452;-73
2021/01/11 03:24:27;;;;;;;43.70;28.25;;;4.10;96.00;;;;;;5024395;28;20184;-73
2021/01/11 03:26:56;;;;;;;43.80;28.33;;;4.10;96.00;;;;;;5028083;28;20508;-73
2021/01/11 03:29:22;;;;;;;42.20;28.17;;;4.10;96.00;;;;;;5022963;28;20041;-73
2021/01/11 03:31:47;;;;;;;39.40;27.67;;;4.10;96.00;;;;;;5020796;28;20393;-73
2021/01/11 03:34:13;;;;;;;44.53;28.17;;;4.10;96.00;;;;;;5020111;28;20038;-73
2021/01/11 03:36:40;;;;;;;42.28;28.20;;;4.10;96.00;;;;;;5022383;28;20037;-73
2021/01/11 03:39:07;;;;;;;37.67;26.50;;;4.10;96.00;;;;;;5018117;28;20128;-73
2021/01/11 03:41:34;;;;;;;43.47;27.17;;;4.20;95.90;;;;;;5021301;28;20036;-73
2021/01/11 03:44:00;;;;;;;38.38;26.52;;;4.20;95.90;;;;;;5023667;28;20472;-73
2021/01/11 03:46:29;;;;;;;45.17;28.83;;;4.20;95.90;;;;;;5021938;28;20045;-74
2021/01/11 03:48:55;;;;;;;47.30;28.63;;;4.10;95.90;;;;;;5022817;28;20087;-73
2021/01/11 03:51:20;;;;;;;43.75;27.92;;;4.20;95.90;;;;;;5023976;28;20559;-73
2021/01/11 03:53:46;;;;;;;40.40;28.02;;;4.20;95.90;;;;;;5023925;28;20038;-73
2021/01/11 03:56:12;;;;;;;46.13;29.10;;;4.20;95.90;;;;;;5024059;28;20095;-73
2021/01/11 03:58:37;;;;;;;52.85;30.42;;;4.20;95.90;;;;;;5023423;28;20044;-73
2021/01/11 04:01:04;;;;;;;51.20;29.83;;;4.20;95.90;;;;;;5024106;28;20039;-73
2021/01/11 04:03:29;;;;;;;47.15;28.50;;;4.20;95.90;;;;;;5021891;28;20040;-73
2021/01/11 04:05:57;;;;;;;50.20;31.27;;;4.20;95.90;;;;;;5022924;28;20034;-73
2021/01/11 04:08:23;;;;;;;51.70;30.20;;;4.20;95.90;;;;;;5023290;28;20103;-73
2021/01/11 04:10:49;;;;;;;49.65;29.25;;;4.20;95.90;;;;;;5020471;28;20497;-73
2021/01/11 04:13:15;;;;;;;50.22;29.10;;;4.20;95.90;;;;;;5019747;28;20045;-73
2021/01/11 04:15:41;;;;;;;54.97;30.50;;;4.30;95.90;;;;;;5020560;28;20072;-73
2021/01/11 04:18:06;;;;;;;53.55;30.13;;;4.20;95.80;;;;;;5022331;28;20092;-73
2021/01/11 04:20:32;;;;;;;56.78;32.25;;;4.20;95.80;;;;;;5022193;28;20120;-73
2021/01/11 04:22:58;;;;;;;49.38;29.42;;;4.30;95.90;;;;;;5022469;28;20087;-73
2021/01/11 04:25:24;;;;;;;51.03;30.77;;;4.30;95.80;;;;;;5020445;28;20036;-73
2021/01/11 04:28:00;;;;;;;54.78;31.25;;;4.30;95.70;;;;;;5024111;28;20050;-73
2021/01/11 04:30:27;;;;;;;63.33;33.17;;;4.30;95.80;;;;;;5022015;28;20222;-73
2021/01/11 04:32:54;;;;;;;61.63;31.63;;;4.30;95.80;;;;;;5024608;28;20496;-73
2021/01/11 04:35:21;;;;;;;58.20;31.45;;;4.20;95.70;;;;;;5023722;28;20112;-73
2021/01/11 04:37:47;;;;;;;57.42;32.45;;;4.20;95.70;;;;;;5024025;28;20100;-73
2021/01/11 04:40:13;;;;;;;52.20;29.95;;;4.20;95.80;;;;;;5020667;28;20053;-73
2021/01/11 04:42:48;;;;;;;54.30;31.60;;;4.20;95.70;;;;;;5026151;28;20060;-73
2021/01/11 04:45:16;;;;;;;60.33;31.90;;;4.20;95.70;;;;;;5023884;28;20050;-73
2021/01/11 04:47:42;;;;;;;48.95;31.15;;;4.20;95.70;;;;;;5019335;28;20123;-73
2021/01/11 04:50:09;;;;;;;52.60;31.23;;;4.30;95.70;;;;;;5024532;28;20132;-73
2021/01/11 04:52:35;;;;;;;53.42;32.83;;;4.20;95.70;;;;;;5020671;28;20546;-73
2021/01/11 04:55:04;;;;;;;59.72;33.72;;;4.20;95.60;;;;;;5023148;28;20049;-73
2021/01/11 04:57:35;;;;;;;56.38;32.47;;;4.20;95.60;;;;;;5020628;28;20050;-73
2021/01/11 05:00:05;;;;;;;61.92;32.08;;;4.20;95.70;;;;;;5023242;28;20041;-73
2021/01/11 05:02:32;;;;;;;53.90;32.47;;;4.20;95.70;;;;;;5023077;28;20096;-73
2021/01/11 05:04:58;;;;;;;54.45;31.77;;;4.20;95.70;;;;;;5023792;28;20119;-73
2021/01/11 05:07:31;;;;;;;54.28;32.13;;;4.20;95.70;;;;;;5018763;28;20049;-73
2021/01/11 05:09:57;;;;;;;53.28;31.90;;;4.30;95.70;;;;;;5021460;28;20053;-73
2021/01/11 05:12:23;;;;;;;57.00;33.40;;;4.30;95.60;;;;;;5020650;28;20055;-73
2021/01/11 05:15:08;;;;;;;54.58;32.63;;;4.20;95.60;;;;;;5023322;28;20489;-73
2021/01/11 05:17:42;;;;;;;53.03;32.17;;;4.20;95.70;;;;;;5020912;28;20036;-73
2021/01/11 05:20:08;;;;;;;58.67;32.60;;;4.30;95.70;;;;;;5023361;28;20506;-73
2021/01/11 05:22:33;;;;;;;57.42;33.03;;;4.30;95.70;;;;;;5023889;28;20450;-73
2021/01/11 05:25:12;;;;;;;55.78;32.08;;;4.30;95.70;;;;;;5022205;28;20069;-73
2021/01/11 05:27:38;;;;;;;53.58;31.02;;;4.30;95.70;;;;;;5020726;28;20467;-73
2021/01/11 05:30:06;;;;;;;68.70;33.55;;;4.30;95.70;;;;;;5024985;28;20049;-73
2021/01/11 05:32:32;;;;;;;61.45;32.47;;;4.30;95.70;;;;;;5022944;28;20029;-73
2021/01/11 05:34:58;;;;;;;59.17;32.63;;;4.30;95.70;;;;;;5022169;28;20042;-74
2021/01/11 05:37:30;;;;;;;60.70;32.78;;;4.30;95.70;;;;;;5023276;28;20038;-73
2021/01/11 05:40:22;;;;;;;57.85;32.88;;;4.30;95.70;;;;;;5020709;28;20110;-73
2021/01/11 05:42:50;;;;;;;57.65;32.33;;;4.30;95.70;;;;;;5015628;28;20045;-73
2021/01/11 05:45:19;;;;;;;49.13;31.02;;;4.30;95.70;;;;;;5019580;28;20045;-73
2021/01/11 05:47:56;;;;;;;59.35;33.88;;;4.30;95.60;;;;;;5022233;28;20049;-73
2021/01/11 05:50:25;;;;;;;64.00;35.10;;;4.30;95.60;;;;;;5019132;28;20033;-73
2021/01/11 05:52:50;;;;;;;63.05;35.92;;;4.30;95.50;;;;;;5019274;28;20164;-73
2021/01/11 05:55:21;;;;;;;63.80;35.08;;;4.20;95.50;;;;;;5021371;28;20116;-73
2021/01/11 05:57:59;;;;;;;64.72;35.55;;;4.30;95.50;;;;;;5022258;28;20373;-73
2021/01/11 06:00:30;;;;;;;63.45;35.42;;;4.20;95.50;;;;;;5019423;28;20063;-73
2021/01/11 06:02:57;;;;;;;59.08;34.85;;;4.20;95.40;;;;;;5023906;28;20065;-73
2021/01/11 06:05:24;;;;;;;65.15;36.08;;;4.20;95.50;;;;;;5019998;28;20044;-73
2021/01/11 06:07:50;;;;;;;62.40;34.80;;;4.20;95.40;;;;;;5025582;28;20507;-73
2021/01/11 06:10:17;;;;;;;65.60;36.35;;;4.20;95.40;;;;;;5024485;28;20067;-73
2021/01/11 06:12:44;;;;;;;64.68;36.00;;;4.20;95.40;;;;;;5015730;28;20030;-73
2021/01/11 06:15:15;;;;;;;66.63;37.67;;;4.20;95.50;;;;;;5024265;28;20166;-73
2021/01/11 06:17:42;;;;;;;71.15;36.38;;;4.20;95.50;;;;;;5023470;28;20048;-73
2021/01/11 06:20:12;;;;;;;71.50;38.15;;;4.20;95.50;;;;;;5024177;28;20037;-73
2021/01/11 06:22:44;;;;;;;71.30;37.55;;;4.20;95.50;;;;;;5024675;28;20169;-73
2021/01/11 06:25:19;;;;;;;79.75;38.80;;;4.20;95.60;;;;;;5021611;28;20112;-73
2021/01/11 06:28:05;;;;;;;78.93;39.00;;;4.20;95.60;;;;;;5023439;28;20046;-73
2021/01/11 06:30:33;;;;;;;72.45;38.63;;;4.10;95.60;;;;;;5020230;28;20042;-73
2021/01/11 06:33:04;;;;;;;81.93;40.35;;;4.20;95.60;;;;;;5024287;28;20037;-74
2021/01/11 06:35:30;;;;;;;72.97;39.90;;;4.10;95.50;;;;;;5022279;28;20404;-73
2021/01/11 06:38:08;;;;;;;78.75;40.08;;;4.10;95.50;;;;;;5019355;28;20124;-73
2021/01/11 06:40:34;;;;;;;85.13;40.05;;;4.10;95.50;;;;;;5023444;28;20084;-73
2021/01/11 06:43:01;;;;;;;74.20;38.50;;;4.10;95.50;;;;;;5019437;28;20042;-73
2021/01/11 06:45:35;;;;;;;76.05;39.35;;;4.10;95.50;;;;;;5019807;28;20057;-73
2021/01/11 06:48:07;;;;;;;82.38;39.35;;;4.10;95.50;;;;;;5016136;28;20044;-73
2021/01/11 06:50:34;;;;;;;75.57;37.20;;;4.10;95.50;;;;;;5023060;28;20042;-73
2021/01/11 06:53:01;;;;;;;81.38;39.50;;;4.00;95.60;;;;;;5019469;28;20030;-73
2021/01/11 06:55:28;;;;;;;80.25;39.05;;;4.10;95.50;;;;;;5022335;28;20056;-73
2021/01/11 06:58:01;;;;;;;83.70;40.92;;;4.10;95.50;;;;;;5024368;28;20514;-73
2021/01/11 07:00:32;;;;;;;80.18;39.60;;;4.10;95.60;;;;;;5022572;28;20192;-73
2021/01/11 07:02:58;;;;;;;79.22;38.97;;;4.00;95.60;;;;;;5019351;28;20037;-73
2021/01/11 07:05:33;;;;;;;85.35;39.35;;;4.00;95.60;;;;;;5022795;28;20069;-73
2021/01/11 07:08:21;;;;;;;78.00;37.65;;;4.00;95.60;;;;;;5019766;28;20422;-73
2021/01/11 07:10:47;;;;;;;80.63;38.60;;;4.10;95.60;;;;;;5020769;28;20041;-73
2021/01/11 07:13:19;;;;;;;72.70;37.85;;;4.10;95.50;;;;;;5018709;28;20396;-73
2021/01/11 07:15:50;;;;;;;77.95;39.20;;;4.10;95.50;;;;;;5023615;28;20057;-73
2021/01/11 07:18:38;;;;;;;74.45;38.03;;;4.10;95.50;;;;;;5019578;28;20459;-78
2021/01/11 07:21:15;;;;;;;92.05;40.40;;;4.10;95.40;;;;;;5019392;28;20574;-73
2021/01/11 07:23:41;;;;;;;81.20;39.30;;;4.10;95.40;;;;;;5014067;28;20026;-73
2021/01/11 07:26:20;;;;;;;82.72;40.08;;;4.00;95.40;;;;;;5018658;28;20132;-73
2021/01/11 07:29:05;;;;;;;94.97;41.00;;;4.00;95.50;;;;;;5023060;28;20041;-73
2021/01/11 07:31:36;;;;;;;90.38;41.33;;;4.00;95.50;;;;;;5024120;28;20525;-73
2021/01/11 07:34:05;;;;;;;83.20;38.33;;;4.10;95.50;;;;;;5021718;28;20037;-73
2021/01/11 07:36:36;;;;;;;86.95;40.42;;;4.00;95.50;;;;;;5022162;28;20039;-73
2021/01/11 07:39:16;;;;;;;80.72;38.90;;;4.00;95.50;;;;;;5020453;28;20037;-73
2021/01/11 07:41:48;;;;;;;90.80;40.15;;;4.00;95.50;;;;;;5023473;28;20045;-73
2021/01/11 07:44:14;;;;;;;75.07;37.25;;;4.00;95.50;;;;;;5021513;28;20038;-73
2021/01/11 07:46:41;;;;;;;84.13;37.72;;;4.00;95.50;;;;;;5023422;28;20046;-74
2021/01/11 07:49:15;;;;;;;82.28;38.80;;;4.10;95.50;;;;;;5023716;28;20069;-73
2021/01/11 07:51:43;;;;;;;83.65;38.45;;;4.10;95.50;;;;;;5023616;28;20049;-73
2021/01/11 07:54:17;;;;;;;80.63;37.63;;;4.10;95.50;;;;;;5030522;28;20034;-73
2021/01/11 07:56:44;;;;;;;87.80;39.38;;;4.10;95.50;;;;;;5025828;28;20443;-73
2021/01/11 07:59:10;;;;;;;85.90;39.25;;;4.10;95.50;;;;;;5024550;28;20039;-73
2021/01/11 08:01:50;;;;;;;81.60;40.13;;;4.10;95.50;;;;;;5023261;28;20399;-73
2021/01/11 08:04:17;;;;;;;90.32;38.22;;;4.10;95.50;;;;;;5024867;28;20412;-74
2021/01/11 08:06:52;;;;;;;80.68;37.85;;;4.10;95.60;;;;;;5028203;28;20102;-73
2021/01/11 08:09:19;;;;;;;84.88;38.63;;;4.10;95.60;;;;;;5022126;28;20046;-74
2021/01/11 08:11:46;;;;;;;79.45;38.55;;;4.10;95.60;;;;;;5026829;28;20068;-73
2021/01/11 08:14:12;;;;;;;89.72;38.72;;;4.10;95.60;;;;;;5025243;28;20041;-73
2021/01/11 08:16:44;;;;;;;88.60;39.63;;;4.10;95.60;;;;;;5023170;28;20045;-73
2021/01/11 08:19:11;;;;;;;78.68;37.33;;;4.10;95.60;;;;;;5027668;28;20049;-73
2021/01/11 08:21:37;;;;;;;75.68;36.88;;;4.10;95.50;;;;;;5023611;28;20041;-73
2021/01/11 08:24:12;;;;;;;76.35;37.88;;;4.10;95.50;;;;;;5022676;28;20076;-73
2021/01/11 08:26:45;;;;;;;72.78;36.05;;;4.10;95.60;;;;;;5023614;28;20475;-73
2021/01/11 08:29:11;;;;;;;78.25;37.72;;;4.20;95.60;;;;;;5023925;28;20148;-73
2021/01/11 08:31:38;;;;;;;76.90;37.65;;;4.20;95.60;;;;;;5026235;28;20502;-73
2021/01/11 08:34:06;;;;;;;83.72;39.08;;;4.20;95.60;;;;;;5026228;28;20046;-73
2021/01/11 08:36:32;;;;;;;80.85;36.88;;;4.10;95.60;;;;;;5025962;28;20037;-73
2021/01/11 08:39:16;;;;;;;78.25;37.97;;;4.20;95.70;;;;;;5024389;28;20033;-73
2021/01/11 08:41:51;;;;;;;79.07;38.17;;;4.20;95.70;;;;;;5023853;28;20049;-73
2021/01/11 08:44:31;;;;;;;85.18;39.58;;;4.20;95.70;;;;;;5022005;28;20030;-73
2021/01/11 08:47:03;;;;;;;82.60;39.20;;;4.20;95.80;;;;;;5016742;28;20800;-73
2021/01/11 08:49:29;;;;;;;85.20;37.97;;;4.20;95.80;;;;;;5025841;28;20041;-73
2021/01/11 08:52:07;;;;;;;88.35;39.72;;;4.20;95.90;;;;;;5032520;28;20049;-73
2021/01/11 08:54:32;;;;;;;87.25;40.78;;;4.20;95.90;;;;;;5024128;28;20040;-73
2021/01/11 08:57:07;;;;;;;78.10;39.97;;;4.20;95.90;;;;;;5026175;28;20033;-74
2021/01/11 08:59:33;;;;;;;78.18;40.03;;;4.20;95.90;;;;;;5028787;28;20063;-74
2021/01/11 09:01:59;;;;;;;77.13;41.10;;;4.20;95.90;;;;;;5024335;28;20041;-74
2021/01/11 09:04:36;;;;;;;81.38;40.30;;;4.30;95.90;;;;;;5024814;28;20049;-73
2021/01/11 09:07:06;;;;;;;80.65;41.80;;;4.20;95.90;;;;;;5024561;28;20043;-74
2021/01/11 09:09:33;;;;;;;74.70;38.63;;;4.30;95.90;;;;;;5027346;28;20511;-73
2021/01/11 09:12:07;;;;;;;69.25;38.55;;;4.30;95.80;;;;;;5023183;28;20045;-73
2021/01/11 09:14:34;;;;;;;73.13;39.25;;;4.30;95.80;;;;;;5021117;28;20042;-73
2021/01/11 09:17:03;;;;;;;72.63;39.80;;;4.30;95.80;;;;;;5023886;28;20552;-73
2021/01/11 09:19:29;;;;;;;71.35;38.92;;;4.30;95.80;;;;;;5041501;28;20443;-73
2021/01/11 09:22:00;;;;;;;67.47;38.47;;;4.30;95.80;;;;;;5024222;28;20104;-74
2021/01/11 09:24:27;;;;;;;61.13;37.92;;;4.30;95.80;;;;;;5023451;28;20038;-73
2021/01/11 09:26:53;;;;;;;64.53;37.42;;;4.30;95.80;;;;;;5026680;28;20033;-73
2021/01/11 09:29:20;;;;;;;54.20;34.15;;;4.40;95.80;;;;;;5024530;28;20056;-73
2021/01/11 09:31:46;;;;;;;54.53;35.70;;;4.30;95.70;;;;;;5023632;28;20384;-73
2021/01/11 09:34:11;;;;;;;63.55;37.03;;;4.40;95.70;;;;;;5026214;28;20127;-73
2021/01/11 09:36:38;;;;;;;58.50;36.42;;;4.40;95.70;;;;;;5022886;28;20503;-73
2021/01/11 09:39:06;;;;;;;57.80;36.72;;;4.40;95.60;;;;;;5024550;28;20048;-73
2021/01/11 09:41:31;;;;;;;64.60;36.03;;;4.40;95.60;;;;;;5024702;28;20423;-73
2021/01/11 09:43:57;;;;;;;54.22;33.75;;;4.40;95.60;;;;;;5027119;28;20053;-73
2021/01/11 09:46:23;;;;;;;47.60;33.83;;;4.40;95.60;;;;;;5025947;28;20041;-73
2021/01/11 09:48:49;;;;;;;48.90;31.58;;;4.40;95.50;;;;;;5022032;28;20091;-74
2021/01/11 09:51:15;;;;;;;55.97;33.40;;;4.50;95.50;;;;;;5024968;28;20038;-73
2021/01/11 09:53:41;;;;;;;47.58;32.90;;;4.50;95.50;;;;;;5024326;28;20051;-73
2021/01/11 09:56:07;;;;;;;46.95;31.73;;;4.50;95.40;;;;;;5025149;28;20050;-73
2021/01/11 09:58:33;;;;;;;45.88;31.60;;;4.50;95.50;;;;;;5023141;28;20043;-73
2021/01/11 10:00:58;;;;;;;47.92;32.00;;;4.50;95.50;;;;;;5028615;28;20041;-73
2021/01/11 10:03:24;;;;;;;49.25;32.28;;;4.50;95.50;;;;;;5021042;28;20410;-73
2021/01/11 10:05:55;;;;;;;50.83;33.25;;;4.50;95.40;;;;;;5023537;28;20037;-73
2021/01/11 10:08:21;;;;;;;45.03;30.85;;;4.50;95.50;;;;;;5020897;28;20076;-73
2021/01/11 10:10:47;;;;;;;42.70;30.65;;;4.40;95.50;;;;;;5021436;28;20072;-73
2021/01/11 10:13:12;;;;;;;51.10;32.25;;;4.50;95.50;;;;;;5018837;28;20408;-73
2021/01/11 10:15:38;;;;;;;43.03;31.02;;;4.50;95.50;;;;;;5019931;28;20048;-73
2021/01/11 10:18:04;;;;;;;41.75;30.50;;;4.50;95.40;;;;;;5017546;28;20050;-73
2021/01/11 10:20:29;;;;;;;39.95;29.30;;;4.50;95.40;;;;;;5025872;28;20100;-73
2021/01/11 10:22:55;;;;;;;43.42;29.90;;;4.50;95.50;;;;;;5022854;28;20061;-74
2021/01/11 10:25:21;;;;;;;38.50;28.27;;;4.50;95.40;;;;;;5019998;28;20514;-74
2021/01/11 10:27:48;;;;;;;41.10;28.52;;;4.50;95.40;;;;;;5021707;28;20056;-73
2021/01/11 10:30:14;;;;;;;35.42;26.85;;;4.50;95.30;;;;;;5028698;28;20043;-73
2021/01/11 10:32:40;;;;;;;36.40;27.27;;;4.50;95.30;;;;;;5023586;28;20124;-73
2021/01/11 10:35:06;;;;;;;35.15;27.63;;;4.50;95.20;;;;;;5019601;28;20214;-73
2021/01/11 10:37:32;;;;;;;38.60;25.85;;;4.50;95.20;;;;;;5026344;28;20094;-73
2021/01/11 10:39:58;;;;;;;32.53;26.13;;;4.60;95.20;;;;;;5017050;28;20419;-73
2021/01/11 10:42:26;;;;;;;38.92;27.42;;;4.60;95.20;;;;;;5016233;28;20045;-73
2021/01/11 10:44:52;;;;;;;35.30;26.92;;;4.60;95.50;;;;;;5019927;28;20039;-73
2021/01/11 10:47:18;;;;;;;33.78;25.48;;;4.60;95.10;;;;;;5020270;28;20050;-73
2021/01/11 10:49:44;;;;;;;33.70;25.70;;;4.60;95.10;;;;;;5019329;28;20053;-73
2021/01/11 10:52:10;;;;;;;35.47;26.30;;;4.60;95.00;;;;;;5021954;28;20394;-73
2021/01/11 10:54:35;;;;;;;33.33;25.15;;;4.60;94.90;;;;;;5021424;28;20522;-73
2021/01/11 10:57:01;;;;;;;28.77;23.98;;;4.60;94.90;;;;;;5022816;28;20147;-73
2021/01/11 10:59:29;;;;;;;33.08;24.45;;;4.60;95.00;;;;;;5025198;28;20780;-73
2021/01/11 11:01:55;;;;;;;34.50;23.70;;;4.60;94.90;;;;;;5023735;28;20461;-73
2021/01/11 11:04:23;;;;;;;29.40;24.08;;;4.60;94.90;;;;;;5021583;28;20140;-73
2021/01/11 11:06:49;;;;;;;30.17;24.90;;;4.60;94.90;;;;;;5018546;28;20644;-73
2021/01/11 11:09:15;;;;;;;27.17;22.33;;;4.70;94.90;;;;;;5017300;28;20034;-73
2021/01/11 11:11:41;;;;;;;26.75;22.65;;;4.70;94.80;;;;;;5022800;28;20064;-73
2021/01/11 11:14:06;;;;;;;32.78;24.08;;;4.70;94.80;;;;;;5019788;28;20132;-73
2021/01/11 11:16:32;;;;;;;28.67;21.88;;;4.70;94.80;;;;;;5023766;28;20396;-73
2021/01/11 11:18:57;;;;;;;26.48;21.90;;;4.70;94.90;;;;;;5029051;28;20099;-73
2021/01/11 11:21:23;;;;;;;29.13;22.45;;;4.70;94.80;;;;;;5027013;28;20034;-73
2021/01/11 11:23:49;;;;;;;28.10;21.23;;;4.70;94.80;;;;;;5023297;28;20033;-73
2021/01/11 11:26:20;;;;;;;26.83;19.83;;;4.80;94.80;;;;;;5028601;28;20045;-73
2021/01/11 11:28:45;;;;;;;24.65;20.83;;;4.70;94.60;;;;;;5024426;28;20073;-73
2021/01/11 11:31:11;;;;;;;24.67;19.17;;;4.80;94.70;;;;;;5029093;28;20625;-73
2021/01/11 11:33:39;;;;;;;25.65;20.65;;;4.80;94.70;;;;;;5020684;28;20261;-73
2021/01/11 11:36:04;;;;;;;24.70;19.13;;;4.90;94.80;;;;;;5023755;28;20117;-73
2021/01/11 11:38:30;;;;;;;22.05;17.88;;;4.90;94.70;;;;;;5020450;28;20562;-73
2021/01/11 11:40:56;;;;;;;24.73;19.23;;;4.90;94.60;;;;;;5025362;28;20045;-73
2021/01/11 11:43:21;;;;;;;26.73;19.35;;;4.90;94.50;;;;;;5022770;28;20061;-73
2021/01/11 11:45:48;;;;;;;23.20;18.70;;;5.00;94.60;;;;;;5025665;28;20129;-73
2021/01/11 11:48:14;;;;;;;22.17;17.80;;;5.00;94.50;;;;;;5024448;28;20543;-73
2021/01/11 11:50:41;;;;;;;23.40;18.13;;;5.00;94.30;;;;;;5025481;28;20562;-73
2021/01/11 11:53:07;;;;;;;20.30;17.80;;;5.00;94.20;;;;;;5029822;28;20037;-73
2021/01/11 11:55:33;;;;;;;22.95;18.50;;;5.10;94.10;;;;;;5023339;28;20559;-73
2021/01/11 11:57:59;;;;;;;19.40;16.38;;;5.10;94.10;;;;;;5025682;28;20504;-73
2021/01/11 12:00:25;;;;;;;21.20;18.17;;;5.10;94.00;;;;;;5028676;28;20480;-73
2021/01/11 12:02:50;;;;;;;26.08;16.83;;;5.10;94.10;;;;;;5029750;28;20050;-73
2021/01/11 12:05:17;;;;;;;22.95;18.15;;;5.10;94.00;;;;;;5025259;28;20423;-73
2021/01/11 12:07:47;;;;;;;23.02;18.70;;;5.10;94.00;;;;;;5025071;28;20037;-73
2021/01/11 12:10:13;;;;;;;23.27;18.40;;;5.10;93.90;;;;;;5022636;28;20041;-74
2021/01/11 12:12:39;;;;;;;27.52;18.77;;;5.10;94.00;;;;;;5023475;28;20522;-73
2021/01/11 12:15:06;;;;;;;19.55;16.50;;;5.00;94.00;;;;;;5024744;28;20044;-73
2021/01/11 12:17:32;;;;;;;22.55;17.33;;;5.00;94.00;;;;;;5022130;28;20041;-73
2021/01/11 12:19:59;;;;;;;20.02;17.08;;;5.00;94.00;;;;;;5026628;28;20065;-73
2021/01/11 12:22:26;;;;;;;19.63;16.98;;;5.00;94.00;;;;;;5028282;28;20087;-73
2021/01/11 12:24:52;;;;;;;21.08;17.33;;;5.10;94.00;;;;;;5021283;28;20061;-73
2021/01/11 12:27:17;;;;;;;22.48;16.98;;;5.00;94.00;;;;;;5023927;28;20138;-73
2021/01/11 12:29:43;;;;;;;19.35;16.58;;;5.00;94.00;;;;;;5026578;28;20087;-72
2021/01/11 12:32:09;;;;;;;18.58;15.35;;;5.00;93.80;;;;;;5023058;28;20047;-73
2021/01/11 12:34:42;;;;;;;19.60;16.38;;;5.00;93.70;;;;;;5018558;28;20065;-73
2021/01/11 12:37:12;;;;;;;18.27;14.85;;;5.10;93.80;;;;;;5022247;28;20531;-73
2021/01/11 12:39:37;;;;;;;16.98;15.20;;;5.00;93.80;;;;;;5018377;28;20437;-73
2021/01/11 12:42:07;;;;;;;18.02;14.27;;;5.10;93.80;;;;;;5026029;28;20072;-72
2021/01/11 12:44:33;;;;;;;16.35;13.68;;;5.10;93.70;;;;;;5020073;28;20038;-73